Time;durP1;ratioP1;P1;durP2;ratioP2;P2;SDS_P1;SDS_P2;PMS_P1;PMS_P2;Temp;Humidity;BMP_temperature;BMP_pressure;BME280_temperature;BME280_humidity;BME280_pressure;Samples;Min_cycle;Max_cycle;Signal;HPM_P1;HPM_P2
2023/10/30 00:04:35;;;;;;;7.57;4.70;;;;;;;-0.51;84.73;100283.41;10283144;28;20043;-70
2023/10/30 00:09:37;;;;;;;10.70;4.90;;;;;;;-0.55;84.47;100260.59;10276602;28;20039;-69
2023/10/30 00:14:40;;;;;;;7.10;4.18;;;;;;;-0.47;84.83;100287.31;10356807;23;20058;-67
2023/10/30 00:19:42;;;;;;;8.10;4.82;;;;;;;-0.41;84.74;100281.03;10350213;28;20689;-67
2023/10/30 00:24:45;;;;;;;7.25;4.10;;;;;;;-0.35;84.62;100303.59;10354068;28;20073;-67
2023/10/30 00:29:47;;;;;;;7.40;4.38;;;;;;;-0.36;84.10;100300.06;10347276;23;20055;-67
2023/10/30 00:34:51;;;;;;;7.95;4.00;;;;;;;-0.28;84.38;100295.47;10323112;28;20450;-68
2023/10/30 00:39:53;;;;;;;8.63;4.28;;;;;;;-0.32;84.41;100278.91;10326397;28;20042;-67
2023/10/30 00:44:56;;;;;;;6.35;3.33;;;;;;;-0.35;84.24;100280.19;10359755;23;20050;-69
2023/10/30 00:49:58;;;;;;;5.00;3.42;;;;;;;-0.27;84.20;100280.94;10359937;28;20069;-69
2023/10/30 00:55:00;;;;;;;5.93;3.55;;;;;;;-0.20;84.25;100273.63;10363242;28;20046;-69
2023/10/30 01:00:04;;;;;;;6.47;3.35;;;;;;;-0.23;84.34;100260.59;10366120;23;20237;-67
2023/10/30 01:05:08;;;;;;;6.13;3.28;;;;;;;-0.36;84.61;100253.41;10327426;28;20407;-66
2023/10/30 01:10:10;;;;;;;7.40;3.28;;;;;;;-0.44;85.03;100245.63;10347688;28;20049;-67
2023/10/30 01:15:13;;;;;;;4.43;3.00;;;;;;;-0.51;85.40;100242.16;10347960;28;20191;-67
2023/10/30 01:20:15;;;;;;;4.32;3.17;;;;;;;-0.57;85.87;100230.38;10352494;28;20048;-67
2023/10/30 01:25:18;;;;;;;7.35;3.47;;;;;;;-0.61;86.36;100224.59;10364444;28;20050;-66
2023/10/30 01:30:20;;;;;;;4.95;3.28;;;;;;;-0.60;86.63;100222.72;10363845;23;20054;-69
2023/10/30 01:35:22;;;;;;;6.65;3.20;;;;;;;-0.64;86.57;100213.44;10357285;28;20449;-71
2023/10/30 01:40:25;;;;;;;4.72;2.83;;;;;;;-0.70;86.91;100211.59;10360296;28;20046;-70
2023/10/30 01:45:27;;;;;;;4.32;3.15;;;;;;;-0.78;87.76;100206.47;10370443;28;20426;-69
2023/10/30 01:50:30;;;;;;;4.80;3.17;;;;;;;-0.69;87.24;100205.19;10382614;28;20038;-69
2023/10/30 01:55:32;;;;;;;5.18;3.75;;;;;;;-0.72;87.84;100203.72;10345105;28;20046;-69
2023/10/30 02:00:34;;;;;;;5.90;3.30;;;;;;;-0.67;87.64;100203.91;10345521;28;20043;-69
2023/10/30 02:05:37;;;;;;;5.72;2.90;;;;;;;-0.70;87.66;100201.63;10339023;28;20541;-69
2023/10/30 02:10:39;;;;;;;4.70;3.15;;;;;;;-0.69;88.24;100194.41;10353163;28;20031;-69
2023/10/30 02:15:41;;;;;;;5.38;3.22;;;;;;;-0.67;88.26;100192.31;10356897;28;20509;-69
2023/10/30 02:20:44;;;;;;;4.22;2.90;;;;;;;-0.63;88.52;100186.25;10376484;28;20046;-69
2023/10/30 02:25:46;;;;;;;3.35;2.92;;;;;;;-0.49;88.76;100183.47;10334376;28;20046;-69
2023/10/30 02:30:48;;;;;;;3.28;2.65;;;;;;;-0.56;88.54;100177.28;10356739;28;20057;-69
2023/10/30 02:35:50;;;;;;;5.00;3.08;;;;;;;-0.59;88.90;100173.16;10374763;23;20046;-73
2023/10/30 02:40:52;;;;;;;3.08;2.72;;;;;;;-0.56;89.25;100174.59;10318710;28;20035;-73
2023/10/30 02:45:54;;;;;;;4.65;2.63;;;;;;;-0.56;89.55;100174.59;10342945;28;20502;-73
2023/10/30 02:51:00;;;;;;;3.38;2.45;;;;;;;-0.62;89.07;100160.16;10348168;23;20055;-72
2023/10/30 02:56:02;;;;;;;3.65;2.25;;;;;;;-0.57;89.55;100149.53;10332192;28;20045;-73
2023/10/30 03:01:05;;;;;;;5.82;2.92;;;;;;;-0.50;88.90;100147.59;10360020;28;20042;-73
2023/10/30 03:06:08;;;;;;;4.25;3.03;;;;;;;-0.56;88.77;100140.38;10343714;22;20059;-69
2023/10/30 03:11:11;;;;;;;5.13;2.70;;;;;;;-0.47;89.43;100136.38;10321245;28;20097;-69
2023/10/30 03:16:14;;;;;;;3.67;3.08;;;;;;;-0.52;89.05;100125.44;10321386;28;20039;-70
2023/10/30 03:21:16;;;;;;;3.95;2.60;;;;;;;-0.50;89.25;100115.28;10321144;28;20034;-69
2023/10/30 03:26:18;;;;;;;3.00;2.28;;;;;;;-0.49;89.23;100108.84;10321455;28;20046;-70
2023/10/30 03:31:20;;;;;;;4.57;2.28;;;;;;;-0.49;89.08;100100.75;10318284;28;20041;-69
2023/10/30 03:36:24;;;;;;;3.97;2.55;;;;;;;-0.49;89.17;100102.63;10320180;28;20039;-69
2023/10/30 03:41:26;;;;;;;4.50;2.75;;;;;;;-0.47;89.09;100104.03;10320430;28;20046;-69
2023/10/30 03:46:29;;;;;;;5.15;2.67;;;;;;;-0.49;89.35;100095.34;10310993;28;20046;-69
2023/10/30 03:51:31;;;;;;;3.70;2.17;;;;;;;-0.44;89.23;100092.00;10319169;28;20138;-70
2023/10/30 03:56:33;;;;;;;2.85;2.30;;;;;;;-0.45;89.33;100080.38;10316827;28;20070;-69
2023/10/30 04:01:35;;;;;;;3.55;2.10;;;;;;;-0.40;89.45;100075.13;10321097;28;20035;-66
2023/10/30 04:06:38;;;;;;;3.63;2.53;;;;;;;-0.37;89.00;100072.00;10315315;28;20313;-67
2023/10/30 04:11:40;;;;;;;4.28;2.55;;;;;;;-0.37;89.47;100058.50;10319173;28;20422;-67
2023/10/30 04:16:42;;;;;;;3.03;2.60;;;;;;;-0.34;89.18;100062.66;10325579;28;20047;-68
2023/10/30 04:21:44;;;;;;;3.00;2.42;;;;;;;-0.34;89.18;100055.41;10340736;23;20057;-70
2023/10/30 04:26:46;;;;;;;3.88;2.55;;;;;;;-0.35;89.41;100052.91;10366319;28;20046;-73
2023/10/30 04:31:49;;;;;;;3.25;2.40;;;;;;;-0.45;89.80;100042.66;10353720;28;20602;-73
2023/10/30 04:36:55;;;;;;;4.25;2.78;;;;;;;-0.40;89.68;100031.19;10363818;23;20480;-65
2023/10/30 04:41:58;;;;;;;3.55;2.40;;;;;;;-0.41;90.04;100035.75;10340945;28;20041;-66
2023/10/30 04:47:01;;;;;;;3.78;3.00;;;;;;;-0.41;90.03;100033.06;10324006;28;20074;-66
2023/10/30 04:52:04;;;;;;;6.55;3.15;;;;;;;-0.42;90.24;100025.19;10334582;23;20063;-69
2023/10/30 04:57:07;;;;;;;4.03;2.08;;;;;;;-0.38;90.73;100018.31;10286381;28;20434;-70
2023/10/30 05:02:09;;;;;;;3.33;2.63;;;;;;;-0.43;90.39;100010.09;10285398;28;20035;-68
2023/10/30 05:07:11;;;;;;;3.97;2.70;;;;;;;-0.40;90.46;100005.06;10308075;23;20058;-79
2023/10/30 05:12:15;;;;;;;4.25;2.90;;;;;;;-0.41;90.96;100003.41;10361578;28;20092;-79
2023/10/30 05:17:18;;;;;;;3.20;2.30;;;;;;;-0.43;90.96;100002.00;10358411;28;20038;-77
2023/10/30 05:22:20;;;;;;;6.05;3.33;;;;;;;-0.32;91.25;100010.16;10365782;23;20075;-68
2023/10/30 05:27:27;;;;;;;2.13;1.85;;;;;;;-0.44;91.27;100020.03;10280474;28;20050;-67
2023/10/30 05:32:29;;;;;;;4.25;2.78;;;;;;;-0.37;91.56;100017.25;10281623;28;20051;-67
2023/10/30 05:37:34;;;;;;;4.90;3.30;;;;;;;-0.39;91.37;100004.00;10283875;28;20452;-67
2023/10/30 05:42:37;;;;;;;5.00;2.85;;;;;;;-0.41;91.41;100006.09;10279185;28;20043;-68
2023/10/30 05:47:40;;;;;;;4.32;2.92;;;;;;;-0.42;91.36;100017.94;10280977;28;20039;-68
2023/10/30 05:52:42;;;;;;;6.00;3.25;;;;;;;-0.44;91.16;100011.13;10284574;28;20043;-67
2023/10/30 05:57:45;;;;;;;4.28;3.17;;;;;;;-0.45;91.42;100012.19;10284260;28;20050;-67
2023/10/30 06:02:48;;;;;;;4.10;3.08;;;;;;;-0.40;90.79;100012.31;10283476;28;20065;-67
2023/10/30 06:07:52;;;;;;;4.35;2.95;;;;;;;-0.41;90.80;100003.41;10283012;28;20059;-68
2023/10/30 06:12:54;;;;;;;6.25;3.10;;;;;;;-0.28;89.95;99988.16;10282281;28;20047;-68
2023/10/30 06:17:56;;;;;;;3.22;2.20;;;;;;;-0.29;88.46;99981.09;10283695;28;20039;-67
2023/10/30 06:22:59;;;;;;;2.78;2.22;;;;;;;-0.25;87.60;99975.03;10282185;28;20051;-68
2023/10/30 06:28:02;;;;;;;3.67;1.92;;;;;;;-0.17;86.63;99971.22;10284034;29;20043;-67
2023/10/30 06:33:06;;;;;;;4.05;2.58;;;;;;;-0.21;85.46;99967.31;10281196;28;20046;-68
2023/10/30 06:38:11;;;;;;;6.32;2.33;;;;;;;-0.22;84.90;99953.00;10283480;29;20036;-68
2023/10/30 06:43:14;;;;;;;5.68;2.40;;;;;;;-0.23;84.81;99950.53;10297048;28;20047;-68
2023/10/30 06:48:17;;;;;;;3.63;2.22;;;;;;;-0.16;84.21;99951.28;10276879;28;20039;-68
2023/10/30 06:53:20;;;;;;;4.85;2.30;;;;;;;-0.04;84.03;99941.34;10297410;28;20031;-68
2023/10/30 06:58:22;;;;;;;3.85;2.40;;;;;;;0.04;83.02;99924.03;10282497;28;20043;-68
2023/10/30 07:03:26;;;;;;;2.53;1.95;;;;;;;0.06;80.80;99920.06;10281939;29;20039;-68
2023/10/30 07:08:29;;;;;;;5.20;2.70;;;;;;;0.17;80.91;99921.94;10281088;28;20051;-68
2023/10/30 07:13:31;;;;;;;4.90;2.13;;;;;;;0.11;80.80;99916.66;10282712;29;20043;-68
2023/10/30 07:18:34;;;;;;;3.55;2.42;;;;;;;0.06;80.53;99895.78;10280906;28;20047;-67
2023/10/30 07:23:36;;;;;;;4.95;2.50;;;;;;;0.06;79.66;99887.69;10281940;28;20047;-68
2023/10/30 07:28:38;;;;;;;2.90;2.30;;;;;;;0.10;80.24;99888.88;10279174;28;20050;-68
2023/10/30 07:33:41;;;;;;;5.05;2.50;;;;;;;0.04;80.61;99876.31;10277826;28;20032;-67
2023/10/30 07:38:48;;;;;;;3.83;2.65;;;;;;;0.08;81.43;99866.69;10280221;28;20044;-68
2023/10/30 07:43:52;;;;;;;4.05;2.33;;;;;;;-0.03;81.59;99860.22;10282264;28;20050;-66
2023/10/30 07:48:55;;;;;;;3.42;2.13;;;;;;;0.15;81.16;99855.78;10288280;28;20051;-67
2023/10/30 07:53:58;;;;;;;4.50;2.67;;;;;;;0.05;79.99;99855.56;10288205;28;20454;-67
2023/10/30 07:59:01;;;;;;;5.47;1.77;;;;;;;-0.14;79.82;99855.63;10289017;28;20042;-68
2023/10/30 08:04:05;;;;;;;3.70;2.10;;;;;;;-0.15;79.27;99847.78;10283779;28;20474;-67
2023/10/30 08:09:08;;;;;;;7.93;2.60;;;;;;;-0.06;79.32;99844.50;10287950;28;20454;-67
2023/10/30 08:14:11;;;;;;;4.25;2.33;;;;;;;-0.06;78.73;99849.06;10286584;28;20572;-67
2023/10/30 08:19:14;;;;;;;4.82;2.75;;;;;;;-0.10;78.93;99843.31;10287836;28;21989;-68
2023/10/30 08:24:18;;;;;;;5.13;3.03;;;;;;;-0.18;78.61;99846.34;10286003;28;20400;-68
2023/10/30 08:29:20;;;;;;;3.15;2.35;;;;;;;-0.08;78.32;99854.69;10287312;28;20054;-68
2023/10/30 08:34:22;;;;;;;4.75;2.95;;;;;;;-0.15;77.61;99854.00;10286760;28;20066;-68
2023/10/30 08:39:25;;;;;;;3.30;2.00;;;;;;;-0.10;78.61;99837.94;10285431;28;20043;-68
2023/10/30 08:44:28;;;;;;;4.22;2.85;;;;;;;-0.11;78.47;99841.69;10287479;28;20047;-68
2023/10/30 08:49:32;;;;;;;3.80;2.72;;;;;;;-0.09;78.29;99830.66;10301855;28;20039;-67
2023/10/30 08:54:34;;;;;;;2.28;1.55;;;;;;;-0.06;78.48;99822.09;10271296;29;20053;-66
2023/10/30 08:59:38;;;;;;;3.28;2.13;;;;;;;-0.08;78.92;99818.81;10284601;28;20039;-67
2023/10/30 09:04:40;;;;;;;7.05;3.10;;;;;;;-0.01;78.76;99814.94;10281148;28;20094;-68
2023/10/30 09:09:43;;;;;;;4.25;2.60;;;;;;;0.12;78.21;99803.13;10283137;28;20039;-67
2023/10/30 09:14:45;;;;;;;4.47;1.98;;;;;;;0.06;78.07;99814.88;10288756;29;20047;-67
2023/10/30 09:19:47;;;;;;;3.92;2.22;;;;;;;0.04;77.82;99816.97;10303887;28;20106;-67
2023/10/30 09:24:49;;;;;;;4.10;2.35;;;;;;;0.10;77.67;99807.94;10269953;29;20051;-67
2023/10/30 09:29:52;;;;;;;3.75;2.72;;;;;;;0.07;77.81;99803.03;10279643;28;20031;-67
2023/10/30 09:34:55;;;;;;;4.13;3.72;;;;;;;0.11;77.69;99784.47;10265792;29;20070;-67
2023/10/30 09:39:58;;;;;;;3.90;2.25;;;;;;;0.16;77.06;99779.19;10299847;28;20070;-67
2023/10/30 09:45:00;;;;;;;3.75;2.20;;;;;;;0.07;77.19;99764.44;10283800;28;20043;-67
2023/10/30 09:50:03;;;;;;;3.33;1.95;;;;;;;0.06;77.57;99755.53;10285145;29;20364;-67
2023/10/30 09:55:10;;;;;;;2.20;1.48;;;;;;;-0.01;77.41;99752.91;10284290;29;20050;-67
2023/10/30 10:00:13;;;;;;;5.93;1.38;;;;;;;0.07;77.08;99756.34;10285512;28;20043;-67
2023/10/30 10:05:17;;;;;;;2.78;1.70;;;;;;;0.03;77.75;99745.22;10283737;28;20039;-67
2023/10/30 10:10:19;;;;;;;1.15;1.02;;;;;;;0.07;77.18;99732.06;10298866;28;20050;-67
2023/10/30 10:15:23;;;;;;;3.80;1.73;;;;;;;0.02;77.47;99723.88;10277073;28;20039;-67
2023/10/30 10:20:27;;;;;;;2.08;1.77;;;;;;;0.20;77.11;99723.75;10276346;29;20503;-68
2023/10/30 10:25:30;;;;;;;2.58;1.40;;;;;;;0.35;76.80;99725.94;10282753;28;20058;-68
2023/10/30 10:30:37;;;;;;;2.50;1.52;;;;;;;0.27;76.49;99721.72;10281344;28;20043;-67
2023/10/30 10:35:41;;;;;;;1.27;1.17;;;;;;;0.34;76.29;99730.50;10283361;29;20423;-67
2023/10/30 10:40:47;;;;;;;3.15;1.60;;;;;;;0.12;76.51;99729.47;10281994;29;20515;-67
2023/10/30 10:45:51;;;;;;;3.38;1.85;;;;;;;0.12;76.77;99722.22;10297842;28;20648;-67
2023/10/30 10:50:58;;;;;;;3.40;1.75;;;;;;;0.22;76.46;99727.03;10297890;28;20043;-67
2023/10/30 10:56:04;;;;;;;3.03;1.83;;;;;;;0.25;76.20;99723.84;10282767;28;20427;-66
2023/10/30 11:01:09;;;;;;;2.88;1.48;;;;;;;0.16;76.46;99728.75;10281920;28;20050;-67
2023/10/30 11:06:13;;;;;;;1.92;1.55;;;;;;;0.20;76.03;99723.75;10281511;29;20419;-67
2023/10/30 11:11:24;;;;;;;1.95;1.40;;;;;;;0.21;75.93;99704.63;10264919;29;20039;-67
2023/10/30 11:16:29;;;;;;;1.35;0.88;;;;;;;0.15;75.38;99705.53;10265897;29;20043;-67
2023/10/30 11:21:32;;;;;;;1.65;0.80;;;;;;;0.08;76.15;99706.72;10291942;28;20044;-67
2023/10/30 11:41:24;;;;;;;4.18;2.13;;;;;;;0.23;75.71;99701.69;10646052;27;20734;-73
2023/10/30 11:46:26;;;;;;;2.22;1.88;;;;;;;0.13;76.33;99721.16;10611017;22;20440;-67
2023/10/30 11:51:29;;;;;;;4.13;1.85;;;;;;;-0.01;77.31;99706.25;10517971;28;20044;-66
2023/10/30 11:56:31;;;;;;;0.93;0.63;;;;;;;0.03;77.11;99712.84;10519140;28;20040;-66
2023/10/30 12:01:35;;;;;;;0.95;0.68;;;;;;;0.08;76.58;99702.16;10573471;22;20055;-86
2023/10/30 12:06:37;;;;;;;2.20;1.85;;;;;;;0.18;76.53;99691.59;10607143;28;20035;-90
2023/10/30 12:11:40;;;;;;;3.83;2.28;;;;;;;0.10;76.76;99691.97;10576332;28;20023;-90
2023/10/30 12:16:51;;;;;;;3.78;2.53;;;;;;;0.13;76.72;99688.78;10592903;28;20038;-90
2023/10/30 12:22:00;;;;;;;3.83;2.05;;;;;;;0.10;77.10;99691.97;10592051;28;20400;-87
2023/10/30 12:27:04;;;;;;;3.55;2.00;;;;;;;0.06;77.22;99698.06;10591281;28;20039;-89
2023/10/30 12:32:12;;;;;;;3.88;2.13;;;;;;;0.04;77.22;99686.69;10620917;28;20416;-85
2023/10/30 12:37:20;;;;;;;1.13;0.90;;;;;;;0.03;77.35;99695.84;10586979;28;20050;-89
2023/10/30 12:42:23;;;;;;;1.30;1.20;;;;;;;-0.05;77.46;99686.22;10581210;28;20043;-89
2023/10/30 12:47:28;;;;;;;2.00;1.65;;;;;;;-0.05;77.43;99689.72;10552298;28;20054;-85
2023/10/30 12:52:31;;;;;;;2.05;1.65;;;;;;;-0.11;77.70;99700.66;10576993;28;20033;-90
2023/10/30 12:57:36;;;;;;;3.28;2.10;;;;;;;-0.17;78.08;99694.31;10538544;28;20040;-85
2023/10/30 13:02:39;;;;;;;2.05;1.48;;;;;;;-0.12;77.93;99694.44;10564683;28;20505;-93
2023/10/30 13:07:42;;;;;;;6.90;2.25;;;;;;;-0.07;78.39;99688.31;10571598;28;20040;-93
2023/10/30 13:12:45;;;;;;;1.90;1.52;;;;;;;0.01;77.66;99692.56;10556267;27;20058;-95
2023/10/30 13:17:48;;;;;;;2.40;1.85;;;;;;;0.02;78.02;99684.22;10534720;28;20096;-93
2023/10/30 13:23:21;;;;;;;3.53;2.03;;;;;;;-0.11;78.49;99687.16;10570207;28;20102;-96
2023/10/30 13:28:24;;;;;;;1.83;1.20;;;;;;;-0.15;79.04;99694.91;10574788;28;20141;-93
2023/10/30 13:33:27;;;;;;;2.03;1.17;;;;;;;-0.24;79.39;99696.28;10538312;28;20048;-92
2023/10/30 13:38:30;;;;;;;1.20;1.10;;;;;;;-0.27;79.77;99687.88;10558505;28;20036;-91
2023/10/30 13:43:33;;;;;;;3.95;1.50;;;;;;;-0.26;79.90;99686.81;10547360;28;20036;-93
2023/10/30 13:48:35;;;;;;;1.63;1.52;;;;;;;-0.30;79.54;99702.63;10525303;28;20051;-88
2023/10/30 13:53:38;;;;;;;2.03;1.60;;;;;;;-0.32;79.99;99680.47;10603850;28;20031;-91
2023/10/30 13:58:41;;;;;;;2.17;1.77;;;;;;;-0.34;80.51;99686.09;10609786;27;20070;-89
2023/10/30 14:03:43;;;;;;;1.60;1.48;;;;;;;-0.33;79.90;99679.66;10557468;28;20050;-89
2023/10/30 14:08:45;;;;;;;3.38;1.48;;;;;;;-0.33;80.22;99695.00;10559300;28;20039;-90
2023/10/30 14:13:48;;;;;;;4.55;2.10;;;;;;;-0.31;80.37;99704.50;10594169;28;20418;-90
2023/10/30 14:18:50;;;;;;;3.97;1.58;;;;;;;-0.32;80.02;99721.75;10563652;28;20043;-90
2023/10/30 14:23:52;;;;;;;0.85;0.75;;;;;;;-0.26;80.23;99727.25;10535524;28;20036;-92
2023/10/30 14:28:54;;;;;;;2.83;1.08;;;;;;;-0.32;80.30;99715.53;10552596;28;20035;-91
2023/10/30 14:33:56;;;;;;;2.40;1.27;;;;;;;-0.31;80.31;99717.97;10536920;28;20131;-91
2023/10/30 14:38:59;;;;;;;3.80;1.30;;;;;;;-0.22;80.04;99717.63;10530519;28;20032;-92
2023/10/30 14:44:01;;;;;;;2.08;1.70;;;;;;;-0.25;80.10;99745.06;10530836;28;20036;-90
2023/10/30 14:49:04;;;;;;;1.38;0.93;;;;;;;-0.27;80.24;99742.59;10550973;28;20532;-94
2023/10/30 14:54:07;;;;;;;1.73;1.25;;;;;;;-0.23;80.42;99741.06;10550338;28;20135;-88
2023/10/30 14:59:09;;;;;;;2.47;1.60;;;;;;;-0.33;80.48;99747.06;10545225;28;20046;-89
2023/10/30 15:04:11;;;;;;;1.67;1.48;;;;;;;-0.39;80.72;99764.13;10550733;28;20047;-90
2023/10/30 15:09:16;;;;;;;3.25;1.10;;;;;;;-0.34;80.86;99763.47;10593379;28;20043;-87
2023/10/30 15:14:18;;;;;;;1.75;1.38;;;;;;;-0.37;80.81;99762.03;10540244;28;20047;-90
2023/10/30 15:19:20;;;;;;;3.10;1.13;;;;;;;-0.38;81.03;99767.66;10543371;28;20046;-91
2023/10/30 15:24:22;;;;;;;0.93;0.52;;;;;;;-0.36;80.84;99763.66;10540156;28;20485;-92
2023/10/30 15:29:24;;;;;;;1.25;0.75;;;;;;;-0.39;80.91;99766.81;10558149;28;20046;-93
2023/10/30 15:34:27;;;;;;;3.22;1.73;;;;;;;-0.43;81.29;99776.44;10567042;28;20046;-93
2023/10/30 15:39:30;;;;;;;6.03;2.20;;;;;;;-0.44;81.20;99774.78;10575113;28;20058;-93
2023/10/30 15:44:33;;;;;;;1.52;1.42;;;;;;;-0.39;81.83;99764.13;10566918;28;20130;-93
2023/10/30 15:49:35;;;;;;;0.50;0.50;;;;;;;-0.26;81.60;99773.06;10565695;28;20044;-91
2023/10/30 15:54:37;;;;;;;3.00;1.80;;;;;;;-0.41;82.05;99779.72;10534485;28;20114;-92
2023/10/30 15:59:39;;;;;;;0.88;0.68;;;;;;;-0.52;82.50;99794.00;10562071;28;21033;-92
2023/10/30 16:04:42;;;;;;;1.02;0.70;;;;;;;-0.45;82.92;99783.94;10514786;28;20045;-86
2023/10/30 16:09:45;;;;;;;3.13;1.60;;;;;;;-0.46;82.64;99795.75;10500877;28;20045;-87
2023/10/30 16:14:47;;;;;;;3.08;1.42;;;;;;;-0.42;82.87;99801.50;10516473;28;20036;-92
2023/10/30 16:19:49;;;;;;;1.35;0.93;;;;;;;-0.52;82.75;99810.16;10519125;28;20041;-93
2023/10/30 16:24:51;;;;;;;2.92;1.27;;;;;;;-0.56;83.04;99819.72;10486594;28;20104;-92
2023/10/30 16:29:53;;;;;;;3.00;1.90;;;;;;;-0.48;82.31;99829.38;10508872;28;20145;-92
2023/10/30 16:34:56;;;;;;;2.00;1.38;;;;;;;-0.46;82.01;99833.50;10532826;28;20080;-94
2023/10/30 16:39:58;;;;;;;2.50;1.70;;;;;;;-0.48;82.05;99838.28;10529874;28;20131;-91
2023/10/30 16:45:01;;;;;;;5.38;1.40;;;;;;;-0.43;82.33;99843.81;10522511;28;20033;-92
2023/10/30 16:50:04;;;;;;;0.43;0.43;;;;;;;-0.45;82.25;99856.69;10487401;28;20040;-90
2023/10/30 16:55:06;;;;;;;1.20;1.10;;;;;;;-0.47;81.99;99864.19;10490034;28;20136;-90
2023/10/30 17:21:32;;;;;;;1.70;1.48;;;;;;;-0.30;80.68;99896.72;10517287;28;20051;-91
2023/10/30 17:26:34;;;;;;;2.83;1.88;;;;;;;-0.31;80.75;99898.59;10493125;28;20406;-91
2023/10/30 17:31:37;;;;;;;1.77;1.13;;;;;;;-0.31;80.87;99901.28;10498724;28;20037;-92
2023/10/30 17:36:40;;;;;;;2.05;1.00;;;;;;;-0.25;80.29;99896.03;10495136;28;20041;-94
2023/10/30 17:41:43;;;;;;;1.40;1.00;;;;;;;-0.29;80.60;99898.34;10519494;28;20080;-90
2023/10/30 17:46:45;;;;;;;0.98;0.80;;;;;;;-0.25;80.29;99910.31;10519687;28;20047;-90
2023/10/30 17:51:47;;;;;;;3.45;1.98;;;;;;;-0.27;80.61;99904.34;10497698;28;20059;-87
2023/10/30 17:56:49;;;;;;;2.03;1.50;;;;;;;-0.35;80.63;99907.34;10470782;28;20055;-84
2023/10/30 18:01:52;;;;;;;2.78;1.90;;;;;;;-0.34;81.14;99911.72;10501801;28;20036;-88
2023/10/30 18:06:54;;;;;;;2.58;1.00;;;;;;;-0.33;81.35;99914.19;10506710;28;20047;-86
2023/10/30 18:12:00;;;;;;;2.38;1.30;;;;;;;-0.40;81.30;99926.06;10481178;28;20053;-82
2023/10/30 18:17:02;;;;;;;4.18;1.00;;;;;;;-0.36;81.60;99935.34;10482033;28;20056;-82
2023/10/30 18:22:05;;;;;;;1.38;0.95;;;;;;;-0.34;81.54;99934.09;10537338;28;20045;-84
2023/10/30 18:27:07;;;;;;;2.42;1.88;;;;;;;-0.35;81.65;99947.78;10565332;28;20039;-91
2023/10/30 18:32:09;;;;;;;3.53;1.98;;;;;;;-0.39;81.68;99947.41;10496391;28;20045;-87
2023/10/30 18:37:11;;;;;;;3.60;1.90;;;;;;;-0.34;82.11;99954.84;10511627;28;20044;-93
2023/10/30 18:42:32;;;;;;;;;;;;;;;;;;;;;
2023/10/30 18:48:14;;;;;;;;;;;;;;;;;;;;;
2023/10/30 19:23:04;;;;;;;3.72;2.60;;;;;;;-0.21;82.60;100000.47;10560747;22;20044;-73
2023/10/30 19:28:07;;;;;;;7.28;3.28;;;;;;;-0.20;82.68;99995.91;10561170;28;20080;-72
2023/10/30 19:33:10;;;;;;;6.43;3.40;;;;;;;-0.23;82.85;100015.25;10563689;28;20067;-73
2023/10/30 19:38:13;;;;;;;6.40;3.38;;;;;;;-0.28;83.01;100029.41;10536830;28;20508;-73
2023/10/30 19:43:15;;;;;;;6.00;2.90;;;;;;;-0.22;83.94;100033.06;10515249;28;20157;-72
2023/10/30 19:48:19;;;;;;;5.93;3.78;;;;;;;-0.21;83.56;100034.72;10506578;28;20553;-73
2023/10/30 19:53:21;;;;;;;8.10;3.45;;;;;;;-0.35;83.40;100031.34;10516020;28;20043;-74
2023/10/30 19:58:24;;;;;;;5.40;3.13;;;;;;;-0.46;83.61;100030.22;10515222;28;20409;-74
2023/10/30 20:03:26;;;;;;;6.53;3.85;;;;;;;-0.43;84.49;100032.47;10498302;28;20048;-75
2023/10/30 20:08:29;;;;;;;5.40;3.50;;;;;;;-0.44;84.76;100038.91;10529173;28;20043;-76
2023/10/30 20:13:32;;;;;;;6.93;3.25;;;;;;;-0.54;84.62;100035.88;10514782;28;20517;-75
2023/10/30 20:18:35;;;;;;;6.65;2.75;;;;;;;-0.52;85.15;100041.91;10522598;28;20033;-74
2023/10/30 20:23:38;;;;;;;6.35;3.63;;;;;;;-0.61;85.04;100048.63;10528090;28;20044;-73
2023/10/30 20:28:40;;;;;;;5.18;2.97;;;;;;;-0.64;85.50;100055.28;10512334;28;20041;-73
2023/10/30 20:33:43;;;;;;;5.47;2.75;;;;;;;-0.64;85.47;100055.28;10529190;28;20033;-74
2023/10/30 20:38:45;;;;;;;10.05;4.28;;;;;;;-0.75;86.37;100053.31;10528841;28;20036;-74
2023/10/30 20:43:48;;;;;;;8.20;4.25;;;;;;;-0.78;86.44;100056.44;10525714;28;20043;-77
2023/10/30 20:48:51;;;;;;;4.40;2.55;;;;;;;-0.80;86.77;100057.72;10526442;28;20040;-74
2023/10/30 20:53:54;;;;;;;6.65;3.55;;;;;;;-0.80;86.69;100076.56;10510902;28;20036;-76
2023/10/30 20:58:57;;;;;;;4.35;2.42;;;;;;;-0.81;86.99;100091.09;10530297;28;20059;-75
2023/10/30 21:03:59;;;;;;;6.10;2.97;;;;;;;-0.86;86.91;100107.09;10511466;28;20036;-75
2023/10/30 21:09:03;;;;;;;4.28;2.83;;;;;;;-0.85;87.13;100108.75;10527463;28;20039;-75
2023/10/30 21:14:08;;;;;;;5.32;2.85;;;;;;;-0.88;87.55;100104.59;10519767;28;20034;-77
2023/10/30 21:19:11;;;;;;;5.72;3.30;;;;;;;-0.86;87.64;100112.47;10528911;28;20056;-75
2023/10/30 21:24:13;;;;;;;7.03;4.18;;;;;;;-0.96;87.35;100123.72;10521743;28;20040;-76
2023/10/30 21:29:15;;;;;;;9.57;3.90;;;;;;;-1.01;87.87;100134.34;10522372;28;20041;-76
2023/10/30 21:34:19;;;;;;;10.18;3.65;;;;;;;-0.96;87.91;100154.19;10507680;28;20040;-77
2023/10/30 21:39:22;;;;;;;8.82;2.95;;;;;;;-0.84;88.18;100162.38;10508007;28;20041;-78
2023/10/30 21:44:25;;;;;;;5.28;2.58;;;;;;;-0.79;88.37;100172.50;10508851;28;20037;-78
2023/10/30 21:49:28;;;;;;;7.85;3.10;;;;;;;-0.95;87.78;100171.97;10513728;28;20094;-80
2023/10/30 21:54:33;;;;;;;5.38;2.80;;;;;;;-0.98;87.50;100175.13;10519636;28;20443;-76
2023/10/30 21:59:36;;;;;;;7.15;3.05;;;;;;;-1.02;87.90;100195.44;10525599;28;20040;-76
2023/10/30 22:04:39;;;;;;;6.32;3.13;;;;;;;-1.02;87.90;100195.44;10528000;28;20058;-75
2023/10/30 22:09:41;;;;;;;5.25;3.08;;;;;;;-0.87;88.39;100230.13;10528863;28;20036;-74
2023/10/30 22:14:46;;;;;;;6.10;3.90;;;;;;;-0.80;88.11;100216.66;10509185;28;20033;-74
2023/10/30 22:19:48;;;;;;;7.35;3.28;;;;;;;-0.75;87.88;100227.59;10507781;28;20048;-76
2023/10/30 22:24:50;;;;;;;7.20;4.15;;;;;;;-0.67;87.51;100230.03;10514074;28;20543;-76
2023/10/30 22:29:53;;;;;;;11.73;5.50;;;;;;;-0.61;87.21;100232.66;10510158;28;20037;-74
2023/10/30 22:34:55;;;;;;;10.48;5.40;;;;;;;-0.66;86.75;100243.28;10523467;28;20044;-74
2023/10/30 22:39:58;;;;;;;8.00;4.95;;;;;;;-0.52;86.73;100249.41;10523045;28;20036;-74
2023/10/30 22:45:00;;;;;;;10.00;5.13;;;;;;;-0.47;86.50;100263.06;10525593;28;20036;-74
2023/10/30 22:50:03;;;;;;;13.23;6.30;;;;;;;-0.70;87.14;100262.78;10524073;28;20044;-74
2023/10/30 22:55:07;;;;;;;10.15;5.00;;;;;;;-0.77;87.83;100278.16;10508851;28;20501;-75
2023/10/30 23:00:14;;;;;;;10.38;4.88;;;;;;;-0.85;88.08;100291.91;10525307;28;20044;-75
2023/10/30 23:05:16;;;;;;;12.57;5.68;;;;;;;-0.77;88.04;100286.25;10507208;28;20040;-74
2023/10/30 23:10:18;;;;;;;9.63;4.75;;;;;;;-0.67;87.92;100305.47;10508729;28;20429;-74
2023/10/30 23:15:24;;;;;;;9.75;4.63;;;;;;;-0.66;87.53;100323.28;10508248;28;20032;-74
2023/10/30 23:20:26;;;;;;;6.30;4.00;;;;;;;-0.65;87.80;100333.03;10502765;28;20048;-74
2023/10/30 23:25:30;;;;;;;10.02;4.20;;;;;;;-0.64;87.99;100322.03;10505460;28;20390;-75
2023/10/30 23:30:33;;;;;;;7.45;4.45;;;;;;;-0.70;88.12;100327.44;10519743;28;20032;-74
2023/10/30 23:35:36;;;;;;;8.40;4.07;;;;;;;-0.70;87.84;100324.75;10525019;28;20043;-75
2023/10/30 23:40:38;;;;;;;8.80;4.32;;;;;;;-0.65;88.10;100330.34;10516558;28;20047;-75
2023/10/30 23:45:40;;;;;;;8.35;3.92;;;;;;;-0.67;88.17;100314.38;10511056;28;20040;-76
2023/10/30 23:50:42;;;;;;;7.72;3.75;;;;;;;-0.63;87.80;100320.16;10524484;28;20036;-76
2023/10/30 23:55:46;;;;;;;5.50;3.45;;;;;;;-0.40;87.68;100339.28;10519866;28;20421;-77
